Time;durP1;ratioP1;P1;durP2;ratioP2;P2;SDS_P1;SDS_P2;PMS_P1;PMS_P2;Temp;Humidity;BMP_temperature;BMP_pressure;BME280_temperature;BME280_humidity;BME280_pressure;Samples;Min_cycle;Max_cycle;Signal;HPM_P1;HPM_P2
2023/06/13 00:00:51;;;;;;;8.23;5.45;;;17.20;68.60;;;;;;5065569;28;20127;-73
2023/06/13 00:03:19;;;;;;;11.35;5.53;;;17.10;68.60;;;;;;5059042;28;20406;-73
2023/06/13 00:05:46;;;;;;;8.05;5.00;;;17.10;68.90;;;;;;5041009;28;20041;-73
2023/06/13 00:08:21;;;;;;;7.32;5.53;;;17.10;68.80;;;;;;5045726;28;20044;-74
2023/06/13 00:10:51;;;;;;;10.43;5.40;;;17.10;69.10;;;;;;5077981;28;20044;-74
2023/06/13 00:13:18;;;;;;;9.82;5.72;;;17.00;69.10;;;;;;5037596;28;20860;-73
2023/06/13 00:15:50;;;;;;;6.75;5.10;;;16.90;69.70;;;;;;5061871;28;20044;-74
2023/06/13 00:18:19;;;;;;;8.95;6.18;;;16.80;70.50;;;;;;5072996;28;20037;-74
2023/06/13 00:20:47;;;;;;;11.73;5.68;;;16.80;69.80;;;;;;5074194;28;20075;-74
2023/06/13 00:23:13;;;;;;;8.00;5.53;;;16.70;70.10;;;;;;5079595;28;20443;-74
2023/06/13 00:25:38;;;;;;;12.82;6.30;;;16.60;70.20;;;;;;5070917;28;20040;-74
2023/06/13 00:28:04;;;;;;;9.10;6.40;;;16.50;70.30;;;;;;5039089;28;20066;-74
2023/06/13 00:30:30;;;;;;;13.20;6.97;;;16.40;70.60;;;;;;5065599;28;20029;-74
2023/06/13 00:32:56;;;;;;;10.73;6.03;;;16.30;71.00;;;;;;5048353;28;20064;-74
2023/06/13 00:35:22;;;;;;;10.90;6.85;;;16.20;71.00;;;;;;5065873;28;20072;-74
2023/06/13 00:37:50;;;;;;;16.10;6.47;;;16.20;71.30;;;;;;5058243;28;21448;-74
2023/06/13 00:40:17;;;;;;;8.52;5.60;;;16.10;71.70;;;;;;5052245;28;20037;-73
2023/06/13 00:42:43;;;;;;;10.32;6.28;;;16.10;71.70;;;;;;5074286;28;20082;-74
2023/06/13 00:45:28;;;;;;;12.43;6.60;;;16.00;71.70;;;;;;5072500;28;20040;-74
2023/06/13 00:47:59;;;;;;;9.13;6.38;;;16.10;72.50;;;;;;5060549;28;20545;-74
2023/06/13 00:50:33;;;;;;;9.82;6.30;;;16.00;72.00;;;;;;5058612;28;20063;-74
2023/06/13 00:53:09;;;;;;;8.77;6.10;;;15.90;72.30;;;;;;5069191;28;20043;-73
2023/06/13 00:55:36;;;;;;;13.68;6.57;;;15.90;72.60;;;;;;5075855;28;20036;-73
2023/06/13 00:58:06;;;;;;;10.90;6.38;;;15.80;72.80;;;;;;5088058;27;20040;-73
2023/06/13 01:00:33;;;;;;;7.25;6.50;;;15.80;72.80;;;;;;5059302;28;20478;-73
2023/06/13 01:03:06;;;;;;;10.77;6.22;;;15.70;73.20;;;;;;5089756;27;20068;-73
2023/06/13 01:05:33;;;;;;;10.13;6.57;;;15.70;73.20;;;;;;5090978;27;20051;-73
2023/06/13 01:08:00;;;;;;;9.35;6.18;;;15.70;72.90;;;;;;5063568;28;20044;-73
2023/06/13 01:10:27;;;;;;;8.30;6.35;;;15.70;72.90;;;;;;5037373;28;20040;-73
2023/06/13 01:13:17;;;;;;;9.48;6.43;;;15.70;73.20;;;;;;5051646;28;20039;-73
2023/06/13 01:15:51;;;;;;;9.30;6.20;;;15.60;73.60;;;;;;5066936;28;20052;-73
2023/06/13 01:18:22;;;;;;;8.48;6.53;;;15.60;73.40;;;;;;5062950;28;20037;-73
2023/06/13 01:20:56;;;;;;;9.82;6.32;;;15.60;73.50;;;;;;5063589;28;20047;-74
2023/06/13 01:23:35;;;;;;;9.90;7.20;;;15.60;73.60;;;;;;5047207;28;20036;-73
2023/06/13 01:26:06;;;;;;;10.48;6.55;;;15.50;73.90;;;;;;5072551;28;20066;-73
2023/06/13 01:28:33;;;;;;;9.20;6.20;;;15.50;74.00;;;;;;5049120;28;20219;-74
2023/06/13 01:31:06;;;;;;;8.77;6.80;;;15.50;73.90;;;;;;5066680;28;20043;-73
2023/06/13 01:33:33;;;;;;;10.45;6.10;;;15.40;74.10;;;;;;5088646;27;20045;-74
2023/06/13 01:35:59;;;;;;;11.63;6.65;;;15.40;74.30;;;;;;5069639;28;20164;-74
2023/06/13 01:38:25;;;;;;;9.57;6.57;;;15.30;74.40;;;;;;5053506;28;20120;-74
2023/06/13 01:40:51;;;;;;;9.93;6.55;;;15.30;74.60;;;;;;5063145;28;20032;-74
2023/06/13 01:43:16;;;;;;;9.98;6.78;;;15.30;74.90;;;;;;5037209;28;20139;-74
2023/06/13 01:45:42;;;;;;;11.20;6.78;;;15.20;75.20;;;;;;5085590;28;20037;-74
2023/06/13 01:48:34;;;;;;;11.48;6.68;;;15.20;75.20;;;;;;5063303;28;20029;-74
2023/06/13 01:51:27;;;;;;;10.23;6.80;;;15.20;75.70;;;;;;5073721;28;20174;-73
2023/06/13 01:53:54;;;;;;;;;;;15.10;75.60;;;;;;5046883;28;20037;-73
2023/06/13 01:56:24;;;;;;;7.88;5.95;;;15.10;76.00;;;;;;5060293;28;19924;-73
2023/06/13 01:58:57;;;;;;;10.18;6.43;;;15.10;75.50;;;;;;5054920;28;20120;-74
2023/06/13 02:01:25;;;;;;;9.63;6.10;;;15.10;75.60;;;;;;5054021;28;20178;-73
2023/06/13 02:03:51;;;;;;;11.98;6.72;;;15.00;76.10;;;;;;5051478;28;20044;-73
2023/06/13 02:06:17;;;;;;;16.85;6.95;;;15.10;75.60;;;;;;5063077;28;20493;-73
2023/06/13 02:08:44;;;;;;;7.85;5.97;;;15.00;76.00;;;;;;5072621;28;20089;-73
2023/06/13 02:11:11;;;;;;;12.57;6.38;;;15.00;76.20;;;;;;5049282;28;20041;-73
2023/06/13 02:13:37;;;;;;;10.10;6.00;;;15.00;76.30;;;;;;5063343;28;20472;-73
2023/06/13 02:16:02;;;;;;;12.90;6.20;;;15.00;76.40;;;;;;5050761;28;20048;-73
2023/06/13 02:18:28;;;;;;;9.07;6.55;;;14.90;76.60;;;;;;5096848;27;20033;-73
2023/06/13 02:20:54;;;;;;;8.60;6.18;;;14.90;76.50;;;;;;5055615;28;20048;-73
2023/06/13 02:23:20;;;;;;;12.63;6.85;;;14.90;76.50;;;;;;5060827;28;20103;-73
2023/06/13 02:25:46;;;;;;;9.45;5.40;;;14.90;76.40;;;;;;5049635;28;20616;-73
2023/06/13 02:28:12;;;;;;;13.65;6.65;;;14.90;76.80;;;;;;5079750;28;20525;-74
2023/06/13 02:30:38;;;;;;;13.82;6.28;;;14.90;76.60;;;;;;5050643;28;20048;-74
2023/06/13 02:33:04;;;;;;;10.10;6.32;;;14.80;76.60;;;;;;5089285;27;20037;-72
2023/06/13 02:35:30;;;;;;;11.25;6.38;;;14.80;76.60;;;;;;5062760;28;20037;-73
2023/06/13 02:37:56;;;;;;;9.38;5.65;;;14.80;77.10;;;;;;5061570;28;20320;-73
2023/06/13 02:40:23;;;;;;;7.78;5.80;;;14.80;76.90;;;;;;5049072;28;20040;-73
2023/06/13 02:42:54;;;;;;;9.75;6.63;;;14.80;77.20;;;;;;5088766;27;20119;-72
2023/06/13 02:45:20;;;;;;;7.90;5.78;;;14.70;77.30;;;;;;5032082;28;20036;-73
2023/06/13 02:47:46;;;;;;;9.18;6.00;;;14.70;77.40;;;;;;5029738;28;20052;-73
2023/06/13 02:50:11;;;;;;;12.68;6.53;;;14.70;77.30;;;;;;5088541;27;20394;-73
2023/06/13 02:52:38;;;;;;;11.88;6.00;;;14.70;77.50;;;;;;5078623;28;20490;-73
2023/06/13 02:55:08;;;;;;;7.43;5.72;;;14.60;77.80;;;;;;5063853;28;20048;-73
2023/06/13 02:57:36;;;;;;;8.10;5.90;;;14.60;77.90;;;;;;5074311;28;20124;-73
2023/06/13 03:00:07;;;;;;;8.75;6.30;;;14.60;78.40;;;;;;5065737;28;20047;-73
2023/06/13 03:02:36;;;;;;;10.93;6.25;;;14.50;78.00;;;;;;5045324;28;20096;-73
2023/06/13 03:05:10;;;;;;;10.35;6.07;;;14.50;78.20;;;;;;5054028;28;20028;-73
2023/06/13 03:07:42;;;;;;;12.27;6.40;;;14.50;78.60;;;;;;5063809;28;20044;-73
2023/06/13 03:10:08;;;;;;;7.70;6.22;;;14.50;78.50;;;;;;5055743;28;20045;-73
2023/06/13 03:12:34;;;;;;;13.95;5.85;;;14.50;78.70;;;;;;5072425;28;20040;-73
2023/06/13 03:15:00;;;;;;;8.60;6.20;;;14.40;79.10;;;;;;5093311;27;20041;-74
2023/06/13 03:17:28;;;;;;;8.25;6.28;;;14.40;78.90;;;;;;5037446;28;20033;-73
2023/06/13 03:19:53;;;;;;;9.77;6.68;;;14.40;79.00;;;;;;5055096;28;20071;-73
2023/06/13 03:22:19;;;;;;;9.90;6.78;;;14.30;78.90;;;;;;5042837;28;20651;-73
2023/06/13 03:24:45;;;;;;;10.15;6.93;;;14.30;79.10;;;;;;5076452;28;20042;-73
2023/06/13 03:27:12;;;;;;;21.67;7.20;;;14.30;79.90;;;;;;5061070;28;20076;-73
2023/06/13 03:29:42;;;;;;;35.95;7.80;;;14.20;79.00;;;;;;5058762;28;20555;-73
2023/06/13 03:32:08;;;;;;;14.43;6.45;;;14.20;79.60;;;;;;5061847;28;20069;-73
2023/06/13 03:34:38;;;;;;;10.93;7.18;;;14.20;79.30;;;;;;5089727;27;20086;-73
2023/06/13 03:37:05;;;;;;;10.98;6.78;;;14.20;79.70;;;;;;5062860;28;20033;-73
2023/06/13 03:39:31;;;;;;;9.40;5.75;;;14.20;79.60;;;;;;5048963;28;20128;-73
2023/06/13 03:41:57;;;;;;;10.70;6.15;;;14.20;79.60;;;;;;5038829;28;20040;-73
2023/06/13 03:44:22;;;;;;;8.60;5.78;;;14.20;79.80;;;;;;5090611;28;20037;-73
2023/06/13 03:46:48;;;;;;;15.48;6.60;;;14.20;80.20;;;;;;5045625;28;20080;-73
2023/06/13 03:49:14;;;;;;;12.10;6.00;;;14.20;80.30;;;;;;5046636;28;20044;-73
2023/06/13 03:51:39;;;;;;;9.25;5.65;;;14.20;79.60;;;;;;5056653;28;20094;-73
2023/06/13 03:54:05;;;;;;;12.10;5.95;;;14.30;80.00;;;;;;5041167;28;20126;-73
2023/06/13 03:56:31;;;;;;;14.55;6.55;;;14.30;79.90;;;;;;5039694;28;20040;-73
2023/06/13 03:58:56;;;;;;;15.25;5.63;;;14.30;79.50;;;;;;5079422;28;20044;-73
2023/06/13 04:01:22;;;;;;;12.02;5.75;;;14.30;79.60;;;;;;5061530;28;20481;-73
2023/06/13 04:03:48;;;;;;;6.78;5.55;;;14.40;80.00;;;;;;5040513;28;20032;-73
2023/06/13 04:06:13;;;;;;;8.10;5.75;;;14.40;80.40;;;;;;5060794;28;20071;-73
2023/06/13 04:08:40;;;;;;;9.98;5.05;;;14.40;79.80;;;;;;5045210;28;20037;-73
2023/06/13 04:11:06;;;;;;;11.15;6.22;;;14.40;80.00;;;;;;5067881;28;20048;-73
2023/06/13 04:13:31;;;;;;;10.05;5.50;;;14.50;79.70;;;;;;5046329;28;20039;-73
2023/06/13 04:15:57;;;;;;;10.68;5.18;;;14.50;79.60;;;;;;5070261;28;20047;-73
2023/06/13 04:18:23;;;;;;;9.48;5.18;;;14.60;79.60;;;;;;5046384;28;20033;-73
2023/06/13 04:20:51;;;;;;;9.63;5.70;;;14.60;79.50;;;;;;5041697;28;20502;-73
2023/06/13 04:23:17;;;;;;;7.70;5.05;;;14.70;79.50;;;;;;5068421;28;20028;-73
2023/06/13 04:25:43;;;;;;;7.97;5.50;;;14.70;79.70;;;;;;5031143;28;20485;-73
2023/06/13 04:28:10;;;;;;;12.05;5.90;;;14.70;79.90;;;;;;5047403;28;20052;-73
2023/06/13 04:30:36;;;;;;;6.80;5.38;;;14.80;79.90;;;;;;5047678;28;20033;-73
2023/06/13 04:33:06;;;;;;;11.38;4.70;;;14.80;80.00;;;;;;5052464;28;20044;-73
2023/06/13 04:35:37;;;;;;;9.10;5.55;;;14.80;79.90;;;;;;5037303;28;20124;-73
2023/06/13 04:38:04;;;;;;;9.38;5.15;;;14.80;79.80;;;;;;5040359;28;20112;-73
2023/06/13 04:40:31;;;;;;;11.48;5.22;;;14.90;80.70;;;;;;5080456;28;20116;-73
2023/06/13 04:42:58;;;;;;;10.73;4.72;;;14.90;80.00;;;;;;5030478;28;20120;-73
2023/06/13 04:45:24;;;;;;;12.05;5.57;;;15.00;80.10;;;;;;5043749;28;20041;-74
2023/06/13 04:47:51;;;;;;;6.93;4.70;;;15.00;80.20;;;;;;5054132;28;20063;-73
2023/06/13 04:50:19;;;;;;;7.68;4.95;;;15.10;80.20;;;;;;5077056;28;20048;-73
2023/06/13 04:52:45;;;;;;;10.60;5.38;;;15.10;79.90;;;;;;5088168;28;20049;-73
2023/06/13 04:55:11;;;;;;;11.95;5.07;;;15.20;79.70;;;;;;5045954;28;20824;-74
2023/06/13 04:57:37;;;;;;;5.78;5.18;;;15.20;79.80;;;;;;5049779;28;20049;-73
2023/06/13 05:00:07;;;;;;;11.00;6.30;;;15.20;79.90;;;;;;5045294;28;20093;-73
2023/06/13 05:02:35;;;;;;;10.93;5.18;;;15.20;79.90;;;;;;5077964;28;20085;-73
2023/06/13 05:05:02;;;;;;;8.13;4.40;;;15.20;80.00;;;;;;5046188;28;20040;-74
2023/06/13 05:07:30;;;;;;;11.27;5.65;;;15.30;80.00;;;;;;5071666;28;20045;-73
2023/06/13 05:09:55;;;;;;;9.20;5.05;;;15.30;80.50;;;;;;5015143;28;20498;-73
2023/06/13 05:12:22;;;;;;;9.93;5.30;;;15.30;80.50;;;;;;5046237;28;20120;-73
2023/06/13 05:14:48;;;;;;;7.97;5.00;;;15.40;80.80;;;;;;5062992;28;20040;-73
2023/06/13 05:17:14;;;;;;;8.20;5.13;;;15.40;80.70;;;;;;5056277;28;20119;-73
2023/06/13 05:19:41;;;;;;;9.77;5.32;;;15.50;81.10;;;;;;5056467;28;20083;-74
2023/06/13 05:22:08;;;;;;;11.48;5.65;;;15.50;81.60;;;;;;5042602;28;20089;-74
2023/06/13 05:24:33;;;;;;;6.57;4.63;;;15.60;81.90;;;;;;5055668;28;20034;-74
2023/06/13 05:27:00;;;;;;;10.13;4.57;;;15.70;81.90;;;;;;5037814;28;20051;-73
2023/06/13 05:29:30;;;;;;;6.70;4.68;;;15.70;81.60;;;;;;5064352;28;20043;-74
2023/06/13 05:31:57;;;;;;;10.38;4.50;;;15.90;81.20;;;;;;5051050;28;20502;-73
2023/06/13 05:34:23;;;;;;;9.25;4.32;;;15.90;80.90;;;;;;5063747;28;20059;-74
2023/06/13 05:36:49;;;;;;;8.88;4.20;;;16.00;80.80;;;;;;5060427;28;20036;-74
2023/06/13 05:39:15;;;;;;;6.30;4.13;;;16.10;80.50;;;;;;5049357;28;20066;-66
2023/06/13 05:41:41;;;;;;;9.38;4.43;;;16.20;79.80;;;;;;5061684;28;20036;-66
2023/06/13 05:44:07;;;;;;;6.82;4.25;;;16.30;79.50;;;;;;5070768;28;20047;-66
2023/06/13 05:46:33;;;;;;;9.95;4.47;;;16.40;79.10;;;;;;5049783;28;20036;-66
2023/06/13 05:48:59;;;;;;;7.47;4.57;;;16.50;79.00;;;;;;5069716;28;20051;-66
2023/06/13 05:51:25;;;;;;;5.80;4.40;;;16.60;78.50;;;;;;5058859;28;20037;-66
2023/06/13 05:53:51;;;;;;;10.27;4.75;;;16.70;78.20;;;;;;5069704;28;20428;-66
2023/06/13 05:56:17;;;;;;;8.68;4.53;;;16.80;77.70;;;;;;5065480;28;20531;-66
2023/06/13 05:58:46;;;;;;;6.45;4.35;;;16.80;77.70;;;;;;5070409;28;20211;-67
2023/06/13 06:01:11;;;;;;;10.45;5.20;;;16.90;77.40;;;;;;5072314;28;20044;-66
2023/06/13 06:03:37;;;;;;;5.65;4.45;;;17.00;77.10;;;;;;5075304;28;20032;-66
2023/06/13 06:06:03;;;;;;;5.43;4.07;;;17.10;76.80;;;;;;5067930;28;20072;-66
2023/06/13 06:08:29;;;;;;;8.02;4.47;;;17.10;76.70;;;;;;5063326;28;20082;-66
2023/06/13 06:10:55;;;;;;;9.13;4.63;;;17.20;76.60;;;;;;5059745;28;20036;-64
2023/06/13 06:13:20;;;;;;;7.38;4.57;;;17.30;76.40;;;;;;5071426;28;20036;-64
2023/06/13 06:15:46;;;;;;;8.45;5.05;;;17.40;76.40;;;;;;5071872;28;20040;-66
2023/06/13 06:18:12;;;;;;;6.55;4.78;;;17.40;76.00;;;;;;5063320;28;20128;-66
2023/06/13 06:20:37;;;;;;;5.38;4.45;;;17.50;75.50;;;;;;5061755;28;20094;-66
2023/06/13 06:23:03;;;;;;;8.18;4.68;;;17.60;75.20;;;;;;5070580;28;20044;-66
2023/06/13 06:25:29;;;;;;;8.63;5.05;;;17.70;75.50;;;;;;5067632;28;20033;-66
2023/06/13 06:27:55;;;;;;;10.70;5.80;;;17.80;75.20;;;;;;5043017;28;20050;-66
2023/06/13 06:30:21;;;;;;;5.82;4.63;;;17.90;75.20;;;;;;5071348;28;20121;-67
2023/06/13 06:32:47;;;;;;;9.88;4.95;;;17.90;74.90;;;;;;5068616;28;20074;-67
2023/06/13 06:35:14;;;;;;;7.82;4.70;;;18.00;74.70;;;;;;5064769;28;20043;-66
2023/06/13 06:37:40;;;;;;;7.35;4.93;;;18.10;74.50;;;;;;5064123;28;20036;-67
2023/06/13 06:40:07;;;;;;;7.82;4.50;;;18.20;74.40;;;;;;5066005;28;20503;-67
2023/06/13 06:42:33;;;;;;;8.90;5.40;;;18.30;74.40;;;;;;5067925;28;20405;-67
2023/06/13 06:44:59;;;;;;;9.75;5.10;;;18.40;73.90;;;;;;5068780;28;20039;-67
2023/06/13 06:47:25;;;;;;;9.93;5.05;;;18.50;73.70;;;;;;5069136;28;20109;-67
2023/06/13 06:49:50;;;;;;;8.73;5.22;;;18.50;73.50;;;;;;5071484;28;20047;-67
2023/06/13 06:52:16;;;;;;;26.65;5.78;;;18.70;73.70;;;;;;5057757;28;20085;-67
2023/06/13 06:54:42;;;;;;;7.28;4.75;;;18.80;73.50;;;;;;5049382;28;20041;-67
2023/06/13 06:57:07;;;;;;;12.52;5.22;;;18.80;72.90;;;;;;5061624;28;20071;-67
2023/06/13 06:59:33;;;;;;;6.57;5.30;;;19.00;73.10;;;;;;5097946;28;20150;-66
2023/06/13 07:01:59;;;;;;;7.05;4.75;;;19.20;72.90;;;;;;5069571;28;20532;-67
2023/06/13 07:04:25;;;;;;;10.10;5.28;;;19.30;73.20;;;;;;5067475;28;20036;-67
2023/06/13 07:06:51;;;;;;;7.63;4.53;;;19.40;72.70;;;;;;5070518;28;20052;-67
2023/06/13 07:09:16;;;;;;;10.13;4.82;;;19.50;72.20;;;;;;5069978;28;20067;-68
2023/06/13 07:11:42;;;;;;;8.75;4.85;;;19.60;71.70;;;;;;5082333;28;20139;-68
2023/06/13 07:14:08;;;;;;;7.10;4.93;;;19.70;71.40;;;;;;5041365;28;20312;-68
2023/06/13 07:16:34;;;;;;;8.18;5.03;;;19.80;71.00;;;;;;5058860;28;20072;-67
2023/06/13 07:18:59;;;;;;;9.50;4.85;;;19.90;70.80;;;;;;5074701;28;20041;-66
2023/06/13 07:21:25;;;;;;;8.73;5.18;;;20.00;70.90;;;;;;5065262;28;20044;-66
2023/06/13 07:23:51;;;;;;;7.82;4.55;;;20.10;70.30;;;;;;5056460;28;20398;-66
2023/06/13 07:26:17;;;;;;;9.52;4.65;;;20.20;70.30;;;;;;5061896;28;20037;-66
2023/06/13 07:28:43;;;;;;;9.43;4.95;;;20.40;70.40;;;;;;5061081;28;20044;-65
2023/06/13 07:31:08;;;;;;;7.80;4.18;;;20.50;69.70;;;;;;5063232;28;20045;-64
2023/06/13 07:33:34;;;;;;;13.20;5.25;;;20.70;69.00;;;;;;5060847;28;20040;-73
2023/06/13 07:36:00;;;;;;;7.60;5.00;;;20.80;69.00;;;;;;5071471;28;20047;-73
2023/06/13 07:38:26;;;;;;;7.15;4.50;;;20.90;68.90;;;;;;5056452;28;20046;-74
2023/06/13 07:40:52;;;;;;;7.90;4.15;;;21.00;69.40;;;;;;5061949;28;20040;-74
2023/06/13 07:43:18;;;;;;;5.53;4.28;;;21.20;69.30;;;;;;5047098;28;20037;-74
2023/06/13 07:45:45;;;;;;;8.90;4.07;;;21.30;68.30;;;;;;5069700;28;20436;-74
2023/06/13 07:48:10;;;;;;;10.75;4.65;;;21.50;68.60;;;;;;5052561;28;20044;-74
2023/06/13 07:50:36;;;;;;;5.47;3.83;;;21.60;68.10;;;;;;5055722;28;20146;-74
2023/06/13 07:53:02;;;;;;;6.68;4.25;;;21.80;68.20;;;;;;5051420;28;20119;-74
2023/06/13 07:55:28;;;;;;;7.03;3.97;;;22.00;67.50;;;;;;5053208;28;20136;-75
2023/06/13 07:57:54;;;;;;;6.72;3.53;;;22.10;67.10;;;;;;5033146;28;20064;-75
2023/06/13 08:00:20;;;;;;;9.18;4.07;;;22.20;66.90;;;;;;5048502;28;20471;-74
2023/06/13 08:02:46;;;;;;;6.05;4.20;;;22.40;66.90;;;;;;5052197;28;20097;-75
2023/06/13 08:05:13;;;;;;;6.05;4.03;;;22.50;66.50;;;;;;5058056;28;20037;-75
2023/06/13 08:07:40;;;;;;;7.57;3.65;;;22.60;66.40;;;;;;5067043;28;20042;-74
2023/06/13 08:10:06;;;;;;;7.85;4.00;;;22.70;66.00;;;;;;5051675;28;20039;-74
2023/06/13 08:12:32;;;;;;;13.25;4.00;;;22.90;66.30;;;;;;5068665;28;20059;-75
2023/06/13 08:14:57;;;;;;;4.38;3.38;;;23.00;65.50;;;;;;5069140;28;20536;-75
2023/06/13 08:17:26;;;;;;;5.68;3.50;;;23.20;65.70;;;;;;5073714;28;20036;-75
2023/06/13 08:19:52;;;;;;;6.25;3.78;;;23.40;65.40;;;;;;5080047;28;20033;-75
2023/06/13 08:22:18;;;;;;;5.57;3.60;;;23.40;64.70;;;;;;5078077;28;20078;-75
2023/06/13 08:24:44;;;;;;;7.70;3.92;;;23.50;64.50;;;;;;5099216;28;20040;-75
2023/06/13 08:27:10;;;;;;;7.22;3.88;;;23.60;64.50;;;;;;5067735;28;20045;-75
2023/06/13 08:29:36;;;;;;;5.53;3.63;;;23.70;64.30;;;;;;5048734;28;20486;-75
2023/06/13 08:32:02;;;;;;;5.90;3.80;;;23.90;64.60;;;;;;5070882;28;20043;-75
2023/06/13 08:34:28;;;;;;;3.67;2.90;;;24.00;63.80;;;;;;5062344;28;20049;-75
2023/06/13 08:36:54;;;;;;;7.00;3.60;;;24.10;64.20;;;;;;5090218;28;20040;-75
2023/06/13 08:39:23;;;;;;;7.13;3.45;;;24.30;64.10;;;;;;5067633;28;20078;-75
2023/06/13 08:41:49;;;;;;;4.43;3.40;;;24.40;63.10;;;;;;5064818;28;20033;-75
2023/06/13 08:44:16;;;;;;;10.05;3.80;;;24.60;63.00;;;;;;5085678;28;20036;-75
2023/06/13 08:46:42;;;;;;;10.15;3.85;;;24.70;62.30;;;;;;5069330;28;20045;-75
2023/06/13 08:49:09;;;;;;;16.35;3.92;;;24.90;62.20;;;;;;5073023;28;20037;-75
2023/06/13 08:51:36;;;;;;;6.03;3.60;;;24.90;62.10;;;;;;5068299;28;20045;-75
2023/06/13 08:54:04;;;;;;;5.18;3.40;;;25.10;62.40;;;;;;5052789;28;20040;-75
2023/06/13 08:56:43;;;;;;;5.93;3.95;;;25.20;61.80;;;;;;5063907;28;20124;-75
2023/06/13 08:59:14;;;;;;;16.00;4.72;;;25.30;62.00;;;;;;5072375;28;20417;-75
2023/06/13 09:01:39;;;;;;;7.57;3.63;;;25.50;61.40;;;;;;5103849;28;20597;-75
2023/06/13 09:04:08;;;;;;;6.18;3.97;;;25.50;60.00;;;;;;5069900;28;20037;-75
2023/06/13 09:06:37;;;;;;;7.60;4.25;;;25.50;59.60;;;;;;5100957;28;20048;-74
2023/06/13 09:09:06;;;;;;;8.98;4.05;;;25.50;59.80;;;;;;5072387;28;20062;-75
2023/06/13 09:11:34;;;;;;;9.20;3.55;;;25.70;59.90;;;;;;5056391;28;20040;-75
2023/06/13 09:14:03;;;;;;;4.43;3.38;;;25.70;58.90;;;;;;5062961;28;20052;-75
2023/06/13 09:16:30;;;;;;;5.60;3.47;;;25.90;59.30;;;;;;5072126;28;20045;-75
2023/06/13 09:18:56;;;;;;;15.63;3.67;;;26.00;58.80;;;;;;5065234;28;20076;-75
2023/06/13 09:21:22;;;;;;;5.53;3.90;;;26.10;59.10;;;;;;5042363;28;20041;-75
2023/06/13 09:23:49;;;;;;;8.73;3.95;;;26.20;59.20;;;;;;5047452;28;20033;-75
2023/06/13 09:26:17;;;;;;;5.18;3.63;;;26.30;58.70;;;;;;5106464;28;20044;-74
2023/06/13 09:28:47;;;;;;;4.55;3.83;;;26.50;58.00;;;;;;5105979;28;20040;-75
2023/06/13 09:31:13;;;;;;;5.43;3.22;;;26.60;58.90;;;;;;5102431;28;20086;-75
2023/06/13 09:33:39;;;;;;;7.75;3.75;;;26.70;58.40;;;;;;5096624;28;20032;-75
2023/06/13 09:36:06;;;;;;;8.57;4.15;;;26.70;58.30;;;;;;5065549;28;20123;-75
2023/06/13 09:38:37;;;;;;;4.30;3.22;;;26.80;56.70;;;;;;5071985;28;20691;-75
2023/06/13 09:41:03;;;;;;;5.90;3.58;;;26.80;56.10;;;;;;5100091;28;20542;-75
2023/06/13 09:43:29;;;;;;;8.43;3.30;;;26.90;57.10;;;;;;5060497;28;20037;-75
2023/06/13 09:45:55;;;;;;;4.57;3.20;;;26.90;56.30;;;;;;5069843;28;20037;-75
2023/06/13 09:48:22;;;;;;;5.53;3.22;;;26.80;56.20;;;;;;5034562;28;20095;-75
2023/06/13 09:50:50;;;;;;;5.47;3.40;;;26.80;55.00;;;;;;5065255;28;20045;-75
2023/06/13 09:53:16;;;;;;;9.23;3.72;;;27.00;56.30;;;;;;5047830;28;20063;-75
2023/06/13 09:55:42;;;;;;;7.90;3.85;;;27.10;56.60;;;;;;5071753;28;20472;-75
2023/06/13 09:58:08;;;;;;;10.70;4.35;;;27.20;56.50;;;;;;5098157;28;20052;-75
2023/06/13 10:00:34;;;;;;;10.40;3.50;;;27.30;56.40;;;;;;5055393;28;20068;-75
2023/06/13 10:03:01;;;;;;;11.38;3.50;;;27.50;56.10;;;;;;5068180;28;20567;-75
2023/06/13 10:05:26;;;;;;;12.00;3.65;;;27.60;55.80;;;;;;5056590;28;20116;-75
2023/06/13 10:07:52;;;;;;;7.15;3.72;;;27.70;55.50;;;;;;5043576;28;20043;-75
2023/06/13 10:10:18;;;;;;;4.25;3.45;;;27.70;54.30;;;;;;5055548;28;20043;-75
2023/06/13 10:12:48;;;;;;;8.43;3.83;;;27.70;54.70;;;;;;5071759;28;20089;-75
2023/06/13 10:15:23;;;;;;;6.65;3.63;;;27.60;54.30;;;;;;5066558;28;20047;-75
2023/06/13 10:17:53;;;;;;;8.18;3.55;;;27.60;54.50;;;;;;5065894;28;20044;-75
2023/06/13 10:20:19;;;;;;;7.78;4.05;;;27.70;54.90;;;;;;5048415;28;20143;-75
2023/06/13 10:22:45;;;;;;;7.90;3.47;;;27.80;53.80;;;;;;5069697;28;20044;-75
2023/06/13 10:25:15;;;;;;;4.43;3.60;;;27.90;54.10;;;;;;5055151;28;20546;-75
2023/06/13 10:27:46;;;;;;;7.57;3.78;;;28.00;54.10;;;;;;5054020;28;20572;-75
2023/06/13 10:30:29;;;;;;;6.90;4.03;;;28.00;54.10;;;;;;5051069;28;20147;-75
2023/06/13 10:33:06;;;;;;;4.32;3.20;;;28.10;53.20;;;;;;5051946;28;20036;-75
2023/06/13 10:36:00;;;;;;;5.22;3.50;;;28.30;53.70;;;;;;5028301;28;20036;-75
2023/06/13 10:39:10;;;;;;;3.67;3.28;;;28.50;52.80;;;;;;5037947;28;20130;-75
2023/06/13 10:41:59;;;;;;;4.75;3.60;;;28.50;52.50;;;;;;5040446;28;21228;-75
2023/06/13 10:44:39;;;;;;;5.57;3.85;;;28.40;53.00;;;;;;5058018;28;20625;-75
2023/06/13 10:47:07;;;;;;;6.38;3.85;;;28.50;52.30;;;;;;5060749;28;20127;-75
2023/06/13 10:49:37;;;;;;;9.07;3.90;;;28.60;52.90;;;;;;5057646;28;20047;-76
2023/06/13 10:52:03;;;;;;;5.70;3.75;;;28.60;51.90;;;;;;5057438;28;20516;-75
2023/06/13 10:54:29;;;;;;;5.88;3.67;;;28.70;52.30;;;;;;5038892;28;20049;-75
2023/06/13 10:57:00;;;;;;;9.05;4.00;;;28.70;51.70;;;;;;5062121;28;20090;-75
2023/06/13 10:59:33;;;;;;;6.03;3.83;;;28.70;51.20;;;;;;5057158;28;20059;-76
2023/06/13 11:01:59;;;;;;;7.95;3.70;;;28.60;52.60;;;;;;5075234;28;20032;-76
2023/06/13 11:04:28;;;;;;;5.03;3.60;;;28.70;51.70;;;;;;5077136;27;20401;-75
2023/06/13 11:07:23;;;;;;;4.60;3.47;;;28.80;52.20;;;;;;5054687;28;20040;-75
2023/06/13 11:10:11;;;;;;;4.07;3.60;;;28.90;51.40;;;;;;5039414;28;20043;-75
2023/06/13 11:12:37;;;;;;;6.35;4.55;;;29.00;51.30;;;;;;5042856;28;20575;-74
2023/06/13 11:15:05;;;;;;;6.72;3.65;;;29.00;51.50;;;;;;5044344;28;20054;-74
2023/06/13 11:17:31;;;;;;;7.30;3.83;;;28.90;51.30;;;;;;5041848;28;20572;-74
2023/06/13 11:19:57;;;;;;;6.72;3.90;;;28.90;51.60;;;;;;5041204;28;20456;-75
2023/06/13 11:22:23;;;;;;;12.07;3.95;;;28.90;51.40;;;;;;5042522;28;20318;-75
2023/06/13 11:24:51;;;;;;;4.68;4.00;;;28.90;52.00;;;;;;5057125;28;20040;-75
2023/06/13 11:27:17;;;;;;;5.90;4.30;;;28.90;50.60;;;;;;5054670;28;20109;-75
2023/06/13 11:29:44;;;;;;;6.95;4.28;;;28.90;50.50;;;;;;5041610;28;20489;-75
2023/06/13 11:32:12;;;;;;;9.43;4.30;;;28.90;50.20;;;;;;5054837;28;20085;-76
2023/06/13 11:34:46;;;;;;;7.90;4.22;;;28.90;50.90;;;;;;5064857;28;20035;-75
2023/06/13 11:37:45;;;;;;;9.10;4.22;;;29.10;50.70;;;;;;5065588;28;20048;-75
2023/06/13 11:40:30;;;;;;;5.32;4.00;;;29.20;49.40;;;;;;5100969;27;20041;-74
2023/06/13 11:42:57;;;;;;;15.23;5.05;;;29.30;51.70;;;;;;5058580;28;20035;-74
2023/06/13 11:45:23;;;;;;;5.95;3.90;;;29.30;50.80;;;;;;5074908;28;20553;-75
2023/06/13 11:47:59;;;;;;;17.83;4.30;;;29.30;50.20;;;;;;5074106;28;20048;-74
2023/06/13 11:50:26;;;;;;;5.65;3.80;;;29.20;51.60;;;;;;5059206;28;20068;-75
2023/06/13 11:53:04;;;;;;;7.47;3.72;;;29.30;51.90;;;;;;5077191;28;20061;-75
2023/06/13 11:55:29;;;;;;;6.63;4.25;;;29.40;50.10;;;;;;5074520;28;20063;-75
2023/06/13 11:57:56;;;;;;;6.28;3.63;;;29.20;51.10;;;;;;5056505;28;20082;-74
2023/06/13 12:00:26;;;;;;;8.75;3.95;;;29.30;50.20;;;;;;5043362;28;20036;-74
2023/06/13 12:02:57;;;;;;;4.35;3.58;;;29.30;50.50;;;;;;5060369;28;20043;-74
2023/06/13 12:05:23;;;;;;;;;;;29.30;50.50;;;;;;5060903;28;20366;-74
2023/06/13 12:07:50;;;;;;;5.35;3.92;;;29.30;49.90;;;;;;5075674;28;19932;-75
2023/06/13 12:10:19;;;;;;;9.45;4.18;;;29.50;51.20;;;;;;5059983;28;20051;-74
2023/06/13 12:12:58;;;;;;;5.43;3.88;;;29.50;50.80;;;;;;5060008;28;20040;-75
2023/06/13 12:15:27;;;;;;;7.55;4.05;;;29.70;49.80;;;;;;5059506;28;20359;-75
2023/06/13 12:18:00;;;;;;;10.07;3.70;;;29.80;50.60;;;;;;5056787;28;20051;-74
2023/06/13 12:20:27;;;;;;;54.72;7.07;;;29.80;51.30;;;;;;5075153;28;20669;-74
2023/06/13 12:22:57;;;;;;;6.68;4.07;;;29.90;50.80;;;;;;5060286;28;20040;-75
2023/06/13 12:25:26;;;;;;;6.45;4.20;;;29.90;50.80;;;;;;5043173;28;20036;-75
2023/06/13 12:27:55;;;;;;;13.05;4.10;;;30.00;50.00;;;;;;5058487;28;20069;-75
2023/06/13 12:30:21;;;;;;;7.43;4.45;;;29.80;49.40;;;;;;5058727;28;20067;-75
2023/06/13 12:32:48;;;;;;;10.95;3.95;;;29.70;49.80;;;;;;5057703;28;20485;-75
2023/06/13 12:35:20;;;;;;;5.07;3.65;;;29.60;50.00;;;;;;5074605;28;21195;-75
2023/06/13 12:37:59;;;;;;;7.45;3.88;;;29.60;50.20;;;;;;5060480;28;20040;-75
2023/06/13 12:40:33;;;;;;;17.27;5.20;;;29.60;50.70;;;;;;5074871;28;20036;-75
2023/06/13 12:43:01;;;;;;;5.55;3.70;;;29.70;50.50;;;;;;5058639;28;20044;-75
2023/06/13 12:45:28;;;;;;;10.82;4.28;;;29.80;50.50;;;;;;5059627;28;20505;-76
2023/06/13 12:47:55;;;;;;;9.25;4.32;;;29.90;50.80;;;;;;5059503;28;20040;-75
2023/06/13 12:50:25;;;;;;;7.30;3.80;;;29.90;51.00;;;;;;5066367;28;20048;-75